Time;durP1;ratioP1;P1;durP2;ratioP2;P2;SDS_P1;SDS_P2;PMS_P1;PMS_P2;Temp;Humidity;BMP_temperature;BMP_pressure;BME280_temperature;BME280_humidity;BME280_pressure;Samples;Min_cycle;Max_cycle;Signal;HPM_P1;HPM_P2
2022/01/07 00:01:07;;;;;;;;;;;;;;;11.22;43.93;100244.91;5033974;28;19956;-71
2022/01/07 00:03:33;;;;;;;;;;;;;;;11.31;43.88;100243.75;5033972;28;20279;-71
2022/01/07 00:05:59;;;;;;;;;;;;;;;11.38;43.64;100245.97;5033774;28;20020;-71
2022/01/07 00:08:25;;;;;;;;;;;;;;;11.54;43.13;100265.34;5033847;28;19917;-71
2022/01/07 00:10:50;;;;;;;;;;;;;;;11.56;43.30;100252.13;5033809;28;19917;-71
2022/01/07 00:13:15;;;;;;;;;;;;;;;11.61;42.98;100247.28;5016085;28;19917;-71
2022/01/07 00:15:41;;;;;;;;;;;;;;;11.20;43.87;100247.19;5033061;28;19913;-71
2022/01/07 00:18:07;;;;;;;;;;;;;;;11.25;43.64;100242.31;5033532;28;19963;-70
2022/01/07 00:20:33;;;;;;;;;;;;;;;11.40;43.43;100255.44;5033619;28;19924;-71
2022/01/07 00:22:59;;;;;;;;;;;;;;;10.99;44.32;100266.25;5033742;28;19920;-71
2022/01/07 00:25:25;;;;;;;;;;;;;;;11.28;43.53;100268.22;5033485;28;20292;-71
2022/01/07 00:27:51;;;;;;;;;;;;;;;11.01;44.36;100269.44;5033689;28;19921;-71
2022/01/07 00:30:17;;;;;;;;;;;;;;;10.92;44.28;100264.00;5033561;28;19917;-71
2022/01/07 00:32:43;;;;;;;;;;;;;;;11.01;44.18;100263.97;5033600;28;19917;-70
2022/01/07 00:35:09;;;;;;;;;;;;;;;10.85;44.55;100266.44;5015795;28;20295;-70
2022/01/07 00:37:34;;;;;;;;;;;;;;;11.01;44.04;100269.44;5015641;28;20323;-71
2022/01/07 00:40:00;;;;;;;;;;;;;;;11.04;44.10;100283.28;5033439;28;19942;-70
2022/01/07 00:42:25;;;;;;;;;;;;;;;11.13;44.25;100283.25;5033429;28;19924;-71
2022/01/07 00:44:51;;;;;;;;;;;;;;;11.23;44.16;100288.34;4999043;28;19921;-71
2022/01/07 00:47:17;;;;;;;;;;;;;;;11.37;44.04;100290.88;5033571;28;20360;-72
2022/01/07 00:49:43;;;;;;;;;;;;;;;11.51;43.85;100283.22;5033327;28;19913;-71
2022/01/07 00:52:09;;;;;;;;;;;;;;;11.71;43.78;100286.31;5033493;28;19921;-71
2022/01/07 00:54:35;;;;;;;;;;;;;;;11.84;43.46;100277.91;5033230;28;20291;-70
2022/01/07 00:57:01;;;;;;;;;;;;;;;11.66;43.93;100277.19;5033166;28;19917;-71
2022/01/07 00:59:26;;;;;;;;;;;;;;;11.43;44.25;100269.59;5033198;28;19972;-71
2022/01/07 01:01:51;;;;;;;;;;;;;;;11.52;44.25;100273.88;5033093;28;19913;-71
2022/01/07 01:04:18;;;;;;;;;;;;;;;11.57;44.08;100264.69;5032989;28;19967;-70
2022/01/07 01:06:45;;;;;;;;;;;;;;;11.59;43.91;100278.84;5033051;28;19952;-71
2022/01/07 01:09:12;;;;;;;;;;;;;;;11.05;45.21;100263.00;5032917;28;19921;-71
2022/01/07 01:11:37;;;;;;;;;;;;;;;11.24;44.80;100267.25;5032939;28;19917;-70
2022/01/07 01:14:03;;;;;;;;;;;;;;;11.18;45.06;100274.03;5033269;28;19917;-72
2022/01/07 01:16:29;;;;;;;;;;;;;;;10.98;45.74;100272.84;5033184;28;19928;-71
2022/01/07 01:18:54;;;;;;;;;;;;;;;11.13;45.33;100266.03;5032878;28;20384;-70
2022/01/07 01:21:20;;;;;;;;;;;;;;;11.43;44.40;100269.59;5032870;28;19986;-70
2022/01/07 01:23:46;;;;;;;;;;;;;;;11.56;43.82;100266.63;5015067;28;19924;-70
2022/01/07 01:26:12;;;;;;;;;;;;;;;11.55;43.85;100266.94;5036489;28;19917;-72
2022/01/07 01:28:38;;;;;;;;;;;;;;;11.56;43.63;100274.84;5039498;28;20287;-70
2022/01/07 01:31:04;;;;;;;;;;;;;;;11.59;43.44;100274.16;5021642;28;19918;-71
2022/01/07 01:33:30;;;;;;;;;;;;;;;11.11;44.58;100275.38;5039410;28;20431;-70
2022/01/07 01:35:56;;;;;;;;;;;;;;;11.42;43.89;100252.38;5039418;28;20039;-70
2022/01/07 01:38:21;;;;;;;;;;;;;;;11.04;44.56;100255.94;5039291;28;19921;-71
2022/01/07 01:40:47;;;;;;;;;;;;;;;11.55;43.33;100245.84;5039632;28;19967;-71
2022/01/07 01:43:13;;;;;;;;;;;;;;;11.32;44.13;100245.34;5039241;28;19921;-70
2022/01/07 01:45:39;;;;;;;;;;;;;;;11.23;44.36;100273.88;5039186;28;19921;-70
2022/01/07 01:48:05;;;;;;;;;;;;;;;11.38;43.87;100265.91;5039210;28;19917;-70
2022/01/07 01:50:30;;;;;;;;;;;;;;;11.50;43.56;100281.63;5039243;28;20409;-71
2022/01/07 01:52:56;;;;;;;;;;;;;;;11.35;44.03;100282.19;5039195;28;19940;-72
2022/01/07 01:55:24;;;;;;;;;;;;;;;11.33;44.12;100282.50;5039212;28;19917;-71
2022/01/07 01:57:50;;;;;;;;;;;;;;;11.52;43.77;100287.56;5039151;28;19917;-70
2022/01/07 02:00:16;;;;;;;;;;;;;;;11.39;43.70;100272.97;5039234;28;19987;-71
2022/01/07 02:02:41;;;;;;;;;;;;;;;11.36;43.92;100279.13;5039165;28;19917;-71
2022/01/07 02:05:07;;;;;;;;;;;;;;;11.51;43.35;100272.28;5039079;28;19950;-71
2022/01/07 02:07:35;;;;;;;;;;;;;;;11.38;43.79;100268.63;5038434;28;19924;-70
2022/01/07 02:10:10;;;;;;;;;;;;;;;11.32;43.83;100269.16;5039065;28;19917;-70
2022/01/07 02:12:36;;;;;;;;;;;;;;;11.30;43.70;100260.47;5039117;28;19959;-71
2022/01/07 02:15:02;;;;;;;;;;;;;;;11.21;44.20;100263.25;5039016;28;19960;-71
2022/01/07 02:17:28;;;;;;;;;;;;;;;11.10;44.25;100284.69;5021310;28;19924;-70
2022/01/07 02:19:54;;;;;;;;;;;;;;;10.97;44.86;100279.44;5038949;28;19917;-71
2022/01/07 02:22:20;;;;;;;;;;;;;;;10.71;45.37;100282.22;5038921;28;19924;-71
2022/01/07 02:24:46;;;;;;;;;;;;;;;10.98;44.83;100284.56;5036535;28;19917;-72
2022/01/07 02:27:12;;;;;;;;;;;;;;;11.02;44.86;100287.44;5021894;28;19929;-82
2022/01/07 02:29:38;;;;;;;;;;;;;;;10.92;44.94;100294.09;5019119;28;19917;-71
2022/01/07 02:32:03;;;;;;;;;;;;;;;10.94;44.85;100297.28;5019081;28;19924;-71
2022/01/07 02:34:29;;;;;;;;;;;;;;;10.72;45.42;100289.28;5001232;28;20306;-70
2022/01/07 02:36:54;;;;;;;;;;;;;;;10.91;45.20;100297.16;5017671;28;19924;-71
2022/01/07 02:39:20;;;;;;;;;;;;;;;11.08;44.60;100295.16;5015910;28;19924;-70
2022/01/07 02:41:45;;;;;;;;;;;;;;;10.96;45.04;100311.44;5015942;28;19924;-71
2022/01/07 02:44:11;;;;;;;;;;;;;;;11.00;44.87;100311.59;5015608;28;19972;-70
2022/01/07 02:46:36;;;;;;;;;;;;;;;10.66;45.88;100307.00;5015725;28;19917;-84
2022/01/07 02:49:09;;;;;;;;;;;;;;;10.91;45.22;100294.41;5014431;28;20300;-71
2022/01/07 02:51:34;;;;;;;;;;;;;;;10.92;45.18;100290.53;5015480;28;19918;-71
2022/01/07 02:54:01;;;;;;;;;;;;;;;10.80;45.21;100272.88;5015639;28;19918;-81
2022/01/07 02:56:27;;;;;;;;;;;;;;;10.77;45.48;100281.72;5015711;28;19918;-71
2022/01/07 02:58:52;;;;;;;;;;;;;;;11.00;44.80;100290.50;5015575;28;19925;-82
2022/01/07 03:01:19;;;;;;;;;;;;;;;10.41;46.44;100278.56;5015525;28;20394;-71
2022/01/07 03:03:44;;;;;;;;;;;;;;;10.90;45.27;100279.94;5015429;28;19917;-84
2022/01/07 03:06:10;;;;;;;;;;;;;;;10.79;45.52;100265.00;5015428;28;20292;-72
2022/01/07 03:08:35;;;;;;;;;;;;;;;10.80;45.65;100269.34;5015344;28;19969;-71
2022/01/07 03:11:02;;;;;;;;;;;;;;;10.74;45.76;100263.28;4997779;28;20400;-70
2022/01/07 03:13:29;;;;;;;;;;;;;;;10.60;46.18;100245.47;5015258;28;19918;-71
2022/01/07 03:15:54;;;;;;;;;;;;;;;10.93;45.40;100243.75;5015245;28;19917;-71
2022/01/07 03:18:19;;;;;;;;;;;;;;;10.87;45.64;100238.78;5015121;28;19917;-71
2022/01/07 03:20:45;;;;;;;;;;;;;;;10.88;45.46;100232.19;5015148;28;20445;-70
2022/01/07 03:23:12;;;;;;;;;;;;;;;10.87;45.59;100209.50;5015119;28;19918;-71
2022/01/07 03:25:41;;;;;;;;;;;;;;;10.94;45.19;100209.81;4997584;28;20372;-70
2022/01/07 03:28:08;;;;;;;;;;;;;;;10.81;45.53;100206.19;5015175;28;20273;-70
2022/01/07 03:30:34;;;;;;;;;;;;;;;10.77;45.64;100212.63;5014963;28;19925;-71
2022/01/07 03:32:59;;;;;;;;;;;;;;;10.51;46.21;100224.44;4997345;28;19918;-70
2022/01/07 03:35:25;;;;;;;;;;;;;;;10.71;45.67;100228.38;5015197;28;19918;-70
2022/01/07 03:37:51;;;;;;;;;;;;;;;10.47;45.96;100226.19;4997220;28;19917;-71
2022/01/07 03:40:18;;;;;;;;;;;;;;;10.55;45.92;100230.84;4997199;28;19925;-71
2022/01/07 03:42:44;;;;;;;;;;;;;;;10.61;46.01;100227.94;4997199;28;19961;-70
2022/01/07 03:45:10;;;;;;;;;;;;;;;10.49;46.24;100232.13;4996931;28;19921;-70
2022/01/07 03:47:36;;;;;;;;;;;;;;;10.65;45.90;100235.13;5014656;28;20016;-70
2022/01/07 03:50:02;;;;;;;;;;;;;;;10.52;46.25;100244.34;5013562;28;19953;-71
2022/01/07 03:52:27;;;;;;;;;;;;;;;10.27;47.03;100259.63;5014530;28;19924;-71
2022/01/07 03:54:53;;;;;;;;;;;;;;;10.27;47.01;100262.34;5014489;28;20376;-70
2022/01/07 03:57:18;;;;;;;;;;;;;;;10.61;45.83;100258.00;4996864;28;20011;-71
2022/01/07 03:59:44;;;;;;;;;;;;;;;10.12;47.04;100273.72;4996884;28;19918;-71
2022/01/07 04:02:09;;;;;;;;;;;;;;;10.18;46.59;100267.00;4996814;28;19988;-70
2022/01/07 04:04:35;;;;;;;;;;;;;;;9.71;47.74;100267.59;5014340;28;20331;-71
2022/01/07 04:07:00;;;;;;;;;;;;;;;9.60;47.53;100270.97;4996628;28;20392;-70
2022/01/07 04:09:26;;;;;;;;;;;;;;;9.86;46.94;100269.06;5014294;28;19956;-70
2022/01/07 04:11:52;;;;;;;;;;;;;;;10.23;45.97;100266.88;5014275;28;20296;-70
2022/01/07 04:14:17;;;;;;;;;;;;;;;10.19;45.85;100276.78;4996551;28;20372;-71
2022/01/07 04:16:43;;;;;;;;;;;;;;;10.53;45.34;100282.28;4996576;28;20016;-71
2022/01/07 04:19:08;;;;;;;;;;;;;;;10.63;44.85;100272.91;5014062;28;20465;-70
2022/01/07 04:21:34;;;;;;;;;;;;;;;10.44;45.42;100269.75;5013822;28;20008;-70
2022/01/07 04:23:59;;;;;;;;;;;;;;;10.30;45.68;100271.84;5013841;28;19925;-70
2022/01/07 04:26:25;;;;;;;;;;;;;;;10.39;45.42;100270.72;5013806;28;20000;-70
2022/01/07 04:28:50;;;;;;;;;;;;;;;10.43;45.50;100277.16;5013781;28;19918;-71
2022/01/07 04:31:16;;;;;;;;;;;;;;;10.54;45.11;100278.41;5013721;28;19918;-73
2022/01/07 04:33:41;;;;;;;;;;;;;;;10.26;45.64;100298.97;5013896;28;19917;-71
2022/01/07 04:36:07;;;;;;;;;;;;;;;10.55;44.76;100307.31;5013684;28;19924;-71
2022/01/07 04:38:32;;;;;;;;;;;;;;;10.38;45.50;100312.00;5013676;28;19917;-78
2022/01/07 04:40:58;;;;;;;;;;;;;;;10.37;45.28;100310.41;5013434;28;19921;-70
2022/01/07 04:43:23;;;;;;;;;;;;;;;10.39;45.41;100328.06;5012249;28;20004;-70
2022/01/07 04:45:49;;;;;;;;;;;;;;;10.30;45.30;100338.19;5012076;28;20395;-71
2022/01/07 04:48:14;;;;;;;;;;;;;;;10.32;45.59;100330.47;5013677;28;19917;-70
2022/01/07 04:50:41;;;;;;;;;;;;;;;9.92;46.42;100330.56;5013377;28;19917;-71
2022/01/07 04:53:06;;;;;;;;;;;;;;;10.23;45.84;100343.31;5013497;28;19995;-70
2022/01/07 04:55:39;;;;;;;;;;;;;;;10.04;46.38;100329.13;5013484;28;19917;-71
2022/01/07 04:58:06;;;;;;;;;;;;;;;10.42;45.59;100335.59;5013805;28;19921;-71
2022/01/07 05:00:32;;;;;;;;;;;;;;;10.35;45.97;100339.94;5012058;28;20479;-79
2022/01/07 05:02:58;;;;;;;;;;;;;;;10.40;45.83;100346.06;5013051;28;19925;-71
2022/01/07 05:05:23;;;;;;;;;;;;;;;10.39;46.25;100349.91;5013359;28;19925;-71
2022/01/07 05:07:49;;;;;;;;;;;;;;;10.12;47.07;100344.72;5013593;28;19940;-70
2022/01/07 05:10:15;;;;;;;;;;;;;;;10.63;45.58;100343.16;5013637;28;20319;-70
2022/01/07 05:12:42;;;;;;;;;;;;;;;10.75;45.08;100341.38;4995748;28;19918;-70
2022/01/07 05:15:08;;;;;;;;;;;;;;;10.77;45.12;100343.78;5013240;28;19918;-71
2022/01/07 05:17:34;;;;;;;;;;;;;;;10.82;44.74;100338.97;5013458;28;19918;-71
2022/01/07 05:19:59;;;;;;;;;;;;;;;10.66;44.96;100340.59;5013243;28;20394;-78
2022/01/07 05:22:25;;;;;;;;;;;;;;;10.57;45.11;100337.84;5013168;28;20379;-70
2022/01/07 05:24:50;;;;;;;;;;;;;;;10.63;45.05;100348.63;5013121;28;19922;-70
2022/01/07 05:27:16;;;;;;;;;;;;;;;10.52;45.40;100362.63;5013126;28;19925;-71
2022/01/07 05:29:41;;;;;;;;;;;;;;;10.53;45.23;100358.75;5013052;28;19941;-71
2022/01/07 05:32:07;;;;;;;;;;;;;;;10.62;44.93;100355.22;5013155;28;19924;-71
2022/01/07 05:34:33;;;;;;;;;;;;;;;10.34;45.50;100355.53;5013135;28;20308;-70
2022/01/07 05:36:58;;;;;;;;;;;;;;;10.50;45.19;100356.69;5013032;28;19922;-71
2022/01/07 05:39:24;;;;;;;;;;;;;;;10.28;45.98;100349.44;5012879;28;19922;-70
2022/01/07 05:41:49;;;;;;;;;;;;;;;10.49;45.41;100362.44;5012896;28;19960;-70
2022/01/07 05:44:15;;;;;;;;;;;;;;;10.41;45.59;100350.38;5012585;28;19922;-71
2022/01/07 05:46:41;;;;;;;;;;;;;;;10.42;45.29;100356.66;5012967;28;19968;-73
2022/01/07 05:49:06;;;;;;;;;;;;;;;9.92;46.49;100354.31;5012940;28;20299;-70
2022/01/07 05:51:31;;;;;;;;;;;;;;;10.15;46.02;100353.09;5012900;28;19922;-71
2022/01/07 05:53:57;;;;;;;;;;;;;;;10.38;45.33;100372.09;5012936;28;19917;-83
2022/01/07 05:56:22;;;;;;;;;;;;;;;10.36;45.53;100390.72;5012824;28;19964;-71
2022/01/07 05:58:48;;;;;;;;;;;;;;;10.14;45.85;100397.09;5012905;28;19921;-70
2022/01/07 06:01:13;;;;;;;;;;;;;;;10.19;45.70;100396.91;5012825;28;19918;-70
2022/01/07 06:03:40;;;;;;;;;;;;;;;10.40;45.36;100406.13;5012747;28;20439;-70
2022/01/07 06:06:06;;;;;;;;;;;;;;;10.45;44.91;100402.47;5012906;28;19918;-71
2022/01/07 06:08:33;;;;;;;;;;;;;;;10.19;45.59;100403.19;5012625;28;20338;-72
2022/01/07 06:10:58;;;;;;;;;;;;;;;10.24;45.41;100397.59;4995141;28;19921;-81
2022/01/07 06:13:23;;;;;;;;;;;;;;;9.96;46.15;100396.22;5015045;28;20055;-83
2022/01/07 06:15:49;;;;;;;;;;;;;;;10.30;45.30;100392.00;5016444;28;20268;-71
2022/01/07 06:18:14;;;;;;;;;;;;;;;10.04;45.81;100387.25;5016117;28;19917;-70
2022/01/07 06:20:40;;;;;;;;;;;;;;;9.88;46.38;100391.53;4998630;28;19917;-71
2022/01/07 06:23:05;;;;;;;;;;;;;;;9.82;46.20;100404.53;5015995;28;19921;-70
2022/01/07 06:25:31;;;;;;;;;;;;;;;9.99;45.96;100404.59;4998499;28;19925;-70
2022/01/07 06:27:56;;;;;;;;;;;;;;;9.76;46.47;100408.53;4998542;28;20290;-71
2022/01/07 06:30:22;;;;;;;;;;;;;;;10.16;45.46;100412.03;5016135;28;20285;-71
2022/01/07 06:32:47;;;;;;;;;;;;;;;10.01;45.66;100407.81;5016083;28;20059;-70
2022/01/07 06:35:13;;;;;;;;;;;;;;;10.04;45.50;100397.38;5016085;28;20325;-81
2022/01/07 06:37:38;;;;;;;;;;;;;;;10.09;45.65;100389.03;5016050;28;20017;-70
2022/01/07 06:40:05;;;;;;;;;;;;;;;9.70;46.20;100396.94;5015956;28;19919;-70
2022/01/07 06:42:30;;;;;;;;;;;;;;;10.00;45.66;100400.75;5015901;28;20331;-71
2022/01/07 06:44:56;;;;;;;;;;;;;;;10.10;45.44;100396.09;5015570;28;19928;-83
2022/01/07 06:47:21;;;;;;;;;;;;;;;10.33;44.73;100403.09;5015855;28;19971;-72
2022/01/07 06:49:47;;;;;;;;;;;;;;;9.85;45.48;100394.91;5015802;28;20016;-70
2022/01/07 06:52:12;;;;;;;;;;;;;;;10.05;45.23;100398.97;5016002;28;19917;-71
2022/01/07 06:54:38;;;;;;;;;;;;;;;9.88;45.76;100380.63;5015661;28;19928;-70
2022/01/07 06:57:03;;;;;;;;;;;;;;;10.19;45.01;100396.91;5015660;28;19929;-70
2022/01/07 06:59:29;;;;;;;;;;;;;;;10.29;44.59;100396.66;5015871;28;20287;-70
2022/01/07 07:01:54;;;;;;;;;;;;;;;10.25;44.66;100398.41;5015612;28;19921;-70
2022/01/07 07:04:20;;;;;;;;;;;;;;;10.09;45.39;100397.22;4997890;28;20012;-71
2022/01/07 07:06:45;;;;;;;;;;;;;;;10.33;44.81;100414.00;5015550;28;19917;-71
2022/01/07 07:09:11;;;;;;;;;;;;;;;10.11;45.00;100408.63;4997897;28;19917;-72
2022/01/07 07:11:37;;;;;;;;;;;;;;;10.12;45.18;100421.16;4997808;28;20012;-83
2022/01/07 07:14:02;;;;;;;;;;;;;;;10.27;44.83;100427.00;5015345;28;19917;-71
2022/01/07 07:16:28;;;;;;;;;;;;;;;10.25;44.83;100436.63;5015325;28;19922;-70
2022/01/07 07:18:53;;;;;;;;;;;;;;;10.20;45.07;100428.56;5015291;28;19956;-71
2022/01/07 07:21:19;;;;;;;;;;;;;;;10.13;45.26;100441.91;5015194;28;19971;-70
2022/01/07 07:23:44;;;;;;;;;;;;;;;9.93;45.72;100449.53;5014799;28;20016;-71
2022/01/07 07:26:09;;;;;;;;;;;;;;;10.21;44.80;100458.28;5015053;28;19963;-70
2022/01/07 07:28:36;;;;;;;;;;;;;;;10.24;44.93;100465.88;5013804;28;19979;-70
2022/01/07 07:31:06;;;;;;;;;;;;;;;10.23;45.06;100458.81;4997478;28;19917;-71
2022/01/07 07:36:30;;;;;;;;;;;;;;;10.33;44.68;100456.91;5015145;28;19995;-87
2022/01/07 07:39:01;;;;;;;;;;;;;;;10.12;45.21;100468.38;5014835;28;20294;-72
2022/01/07 07:41:28;;;;;;;;;;;;;;;9.88;45.59;100473.41;5026464;28;20372;-75
2022/01/07 07:43:54;;;;;;;;;;;;;;;9.98;45.73;100479.41;5030588;28;19925;-72
2022/01/07 07:46:20;;;;;;;;;;;;;;;10.02;45.71;100485.03;5034206;28;20008;-72
2022/01/07 07:48:46;;;;;;;;;;;;;;;10.20;45.33;100483.16;5034453;28;19959;-70
2022/01/07 07:51:12;;;;;;;;;;;;;;;10.00;45.92;100479.09;5018458;28;19917;-71
2022/01/07 07:53:37;;;;;;;;;;;;;;;10.32;45.06;100474.41;5036133;28;19923;-71
2022/01/07 07:56:02;;;;;;;;;;;;;;;10.05;45.60;100484.44;5053752;28;20011;-71
2022/01/07 07:58:28;;;;;;;;;;;;;;;10.31;45.24;100473.59;5053685;28;19944;-72
2022/01/07 08:00:53;;;;;;;;;;;;;;;10.19;45.33;100467.91;5035985;28;19923;-71
2022/01/07 08:03:22;;;;;;;;;;;;;;;10.47;44.55;100457.56;5003257;28;20358;-72
2022/01/07 08:05:48;;;;;;;;;;;;;;;10.11;45.42;100477.69;5005651;28;19921;-71
2022/01/07 08:08:14;;;;;;;;;;;;;;;10.26;45.38;100484.66;5008536;28;19925;-71
2022/01/07 08:10:53;;;;;;;;;;;;;;;10.30;45.24;100495.78;5006497;28;19924;-72
2022/01/07 08:16:00;;;;;;;;;;;;;;;10.37;45.10;100480.53;5023718;28;19947;-82
2022/01/07 08:18:25;;;;;;;;;;;;;;;10.48;44.97;100484.56;5006578;28;19925;-70
2022/01/07 08:20:51;;;;;;;;;;;;;;;10.64;44.40;100484.09;5019901;28;20646;-72
2022/01/07 08:23:17;;;;;;;;;;;;;;;10.46;44.74;100483.28;5020590;28;19928;-74
2022/01/07 08:25:43;;;;;;;;;;;;;;;10.38;44.95;100481.34;5022890;28;19929;-72
2022/01/07 08:28:08;;;;;;;;;;;;;;;10.51;44.51;100483.94;5023287;28;19931;-78
2022/01/07 08:30:47;;;;;;;;;;;;;;;10.49;44.85;100477.16;5024341;28;20284;-72
2022/01/07 08:35:57;;;;;;;;;;;;;;;10.70;44.38;100467.25;5023379;28;19924;-72
2022/01/07 08:38:22;;;;;;;;;;;;;;;10.37;45.38;100471.53;5022386;28;19917;-72
2022/01/07 08:40:47;;;;;;;;;;;;;;;10.71;44.62;100468.03;5003980;28;19925;-72
2022/01/07 08:43:13;;;;;;;;;;;;;;;10.56;44.92;100467.38;5023360;28;20382;-72
2022/01/07 08:45:39;;;;;;;;;;;;;;;10.75;44.54;100480.75;5024229;28;20020;-73
2022/01/07 08:48:05;;;;;;;;;;;;;;;10.70;44.66;100475.44;5005484;28;19917;-75
2022/01/07 08:50:30;;;;;;;;;;;;;;;10.82;44.53;100475.63;5023877;28;20700;-79
2022/01/07 08:53:00;;;;;;;;;;;;;;;10.80;44.61;100493.44;5023638;28;20043;-72
2022/01/07 08:55:26;;;;;;;;;;;;;;;10.71;45.04;100482.50;5028279;28;19963;-76
2022/01/07 08:57:51;;;;;;;;;;;;;;;10.76;44.72;100493.28;5015503;28;19917;-72
2022/01/07 09:00:17;;;;;;;;;;;;;;;10.92;44.36;100490.09;5033506;28;19921;-71
2022/01/07 09:02:42;;;;;;;;;;;;;;;10.77;44.92;100510.50;5029944;28;20023;-72
2022/01/07 09:05:08;;;;;;;;;;;;;;;11.05;44.17;100517.28;5033165;28;19921;-72
2022/01/07 09:07:34;;;;;;;;;;;;;;;10.86;44.67;100519.50;5033219;28;19917;-71
2022/01/07 09:10:00;;;;;;;;;;;;;;;10.98;44.54;100524.34;5015575;28;20011;-72
2022/01/07 09:12:26;;;;;;;;;;;;;;;11.01;44.27;100512.75;5015185;28;19923;-71
2022/01/07 09:14:51;;;;;;;;;;;;;;;11.07;44.34;100519.69;5032935;28;19917;-72
2022/01/07 09:17:16;;;;;;;;;;;;;;;10.67;45.00;100522.53;5006456;28;19926;-71
2022/01/07 09:19:42;;;;;;;;;;;;;;;11.06;44.32;100515.34;5027894;28;19924;-70
2022/01/07 09:22:08;;;;;;;;;;;;;;;11.10;44.33;100506.16;5023253;28;19921;-72
2022/01/07 09:24:33;;;;;;;;;;;;;;;11.16;44.35;100500.53;5020240;28;20254;-71
2022/01/07 09:26:59;;;;;;;;;;;;;;;11.24;43.78;100488.78;5024128;28;19917;-71
2022/01/07 09:29:24;;;;;;;;;;;;;;;11.32;43.75;100505.19;5032717;28;19986;-78
2022/01/07 09:31:50;;;;;;;;;;;;;;;11.46;43.64;100498.75;5015116;28;20390;-71
2022/01/07 09:34:16;;;;;;;;;;;;;;;11.54;43.34;100493.25;5015022;28;19918;-71
2022/01/07 09:36:41;;;;;;;;;;;;;;;11.38;43.81;100498.44;5032735;28;19924;-71
2022/01/07 09:39:07;;;;;;;;;;;;;;;11.61;43.22;100500.97;5015018;28;19964;-80
2022/01/07 09:41:32;;;;;;;;;;;;;;;11.55;43.08;100491.31;5022869;28;19928;-71
2022/01/07 09:43:58;;;;;;;;;;;;;;;11.56;43.22;100488.28;5022871;28;20022;-71
2022/01/07 09:46:24;;;;;;;;;;;;;;;11.60;43.23;100486.47;5021886;28;20277;-71
2022/01/07 09:48:49;;;;;;;;;;;;;;;11.54;43.59;100484.25;5024363;28;19975;-75
2022/01/07 09:51:15;;;;;;;;;;;;;;;11.63;43.28;100472.13;5019450;28;19965;-72
2022/01/07 09:53:41;;;;;;;;;;;;;;;11.28;44.04;100481.56;5023130;28;19963;-73
2022/01/07 09:56:07;;;;;;;;;;;;;;;11.39;43.66;100491.03;5036486;28;19917;-71
2022/01/07 09:58:33;;;;;;;;;;;;;;;11.06;44.46;100497.00;5036470;28;19953;-71
2022/01/07 10:01:06;;;;;;;;;;;;;;;11.45;43.70;100502.59;5036394;28;19924;-72
2022/01/07 10:03:39;;;;;;;;;;;;;;;11.40;43.93;100517.25;5032120;28;20338;-71
2022/01/07 10:06:25;;;;;;;;;;;;;;;11.68;43.38;100521.22;5028700;28;19917;-70
2022/01/07 10:09:00;;;;;;;;;;;;;;;11.28;44.28;100526.13;5024021;28;19923;-71
2022/01/07 10:11:25;;;;;;;;;;;;;;;11.49;43.66;100539.16;5009614;28;20314;-70
2022/01/07 10:14:10;;;;;;;;;;;;;;;11.59;43.71;100531.41;5024761;28;19924;-70
2022/01/07 10:16:46;;;;;;;;;;;;;;;11.68;43.54;100518.50;5026451;28;19917;-71
2022/01/07 10:19:28;;;;;;;;;;;;;;;11.76;43.25;100521.53;5029272;28;20398;-70
2022/01/07 10:21:58;;;;;;;;;;;;;;;11.90;43.31;100514.75;5028216;28;19963;-71
2022/01/07 10:24:23;;;;;;;;;;;;;;;12.12;42.88;100529.34;5028149;28;19988;-70
2022/01/07 10:27:08;;;;;;;;;;;;;;;12.20;42.66;100534.78;5026865;28;20391;-70
2022/01/07 10:29:37;;;;;;;;;;;;;;;12.19;42.57;100530.44;5027778;28;19917;-74
2022/01/07 10:32:21;;;;;;;;;;;;;;;12.07;42.74;100530.31;5028176;28;19925;-70
2022/01/07 10:35:02;;;;;;;;;;;;;;;12.09;43.04;100532.72;5009407;28;20468;-70
2022/01/07 10:37:27;;;;;;;;;;;;;;;12.15;42.86;100534.16;5027079;28;20019;-71
2022/01/07 10:39:52;;;;;;;;;;;;;;;12.28;42.79;100524.94;5027850;28;20012;-70
2022/01/07 10:42:22;;;;;;;;;;;;;;;12.25;42.82;100530.28;5027872;28;20019;-71
2022/01/07 10:45:14;;;;;;;;;;;;;;;12.19;42.86;100533.19;5028255;28;19921;-70
2022/01/07 10:47:39;;;;;;;;;;;;;;;12.25;42.95;100549.44;5022640;28;19921;-70
2022/01/07 10:50:15;;;;;;;;;;;;;;;11.76;43.80;100552.44;5027024;28;19921;-70
2022/01/07 10:52:40;;;;;;;;;;;;;;;11.87;43.80;100552.97;5027866;28;19917;-70
2022/01/07 10:55:10;;;;;;;;;;;;;;;11.94;43.55;100525.88;5006768;28;20579;-71
2022/01/07 10:57:43;;;;;;;;;;;;;;;12.30;42.86;100508.97;5007869;28;19921;-83
2022/01/07 11:00:11;;;;;;;;;;;;;;;12.33;43.02;100515.72;5027787;28;19961;-70
2022/01/07 11:02:36;;;;;;;;;;;;;;;12.43;42.86;100526.31;5026881;28;19965;-70
2022/01/07 11:05:02;;;;;;;;;;;;;;;12.60;42.37;100509.75;5030866;28;19960;-70
2022/01/07 11:07:28;;;;;;;;;;;;;;;12.43;42.57;100520.84;5017580;28;20283;-71
2022/01/07 11:09:57;;;;;;;;;;;;;;;11.91;44.00;100548.41;5035243;28;19975;-70
2022/01/07 11:12:22;;;;;;;;;;;;;;;12.03;43.90;100551.28;5027799;28;19971;-70
2022/01/07 11:14:48;;;;;;;;;;;;;;;11.79;44.29;100554.56;5026334;28;19956;-70
2022/01/07 11:17:20;;;;;;;;;;;;;;;11.84;44.28;100553.59;5027524;28;20272;-71
2022/01/07 11:19:57;;;;;;;;;;;;;;;12.06;43.59;100538.88;5024222;28;20368;-70
2022/01/07 11:22:24;;;;;;;;;;;;;;;11.87;44.21;100536.53;5023595;28;19921;-71
2022/01/07 11:24:54;;;;;;;;;;;;;;;12.00;43.78;100535.50;5025292;28;19983;-70
2022/01/07 11:27:27;;;;;;;;;;;;;;;11.83;44.04;100532.81;5027104;28;20387;-71
2022/01/07 11:30:08;;;;;;;;;;;;;;;11.85;44.28;100546.97;5026931;28;19925;-84
2022/01/07 11:32:49;;;;;;;;;;;;;;;11.39;45.32;100541.06;5025868;28;19932;-70
2022/01/07 11:35:18;;;;;;;;;;;;;;;11.60;44.87;100540.41;5025963;28;19917;-84
2022/01/07 11:38:03;;;;;;;;;;;;;;;11.70;44.79;100547.47;5020294;28;19932;-71
2022/01/07 11:40:31;;;;;;;;;;;;;;;11.62;44.67;100549.91;5017598;28;20375;-71
2022/01/07 11:42:57;;;;;;;;;;;;;;;11.78;44.72;100555.66;5021528;28;19961;-70
2022/01/07 11:45:27;;;;;;;;;;;;;;;12.28;43.66;100576.19;5004501;28;19936;-80
2022/01/07 11:47:53;;;;;;;;;;;;;;;12.17;43.83;100568.34;5006861;28;19917;-71
2022/01/07 11:50:19;;;;;;;;;;;;;;;12.14;43.77;100593.63;5024059;28;19976;-71
2022/01/07 11:53:05;;;;;;;;;;;;;;;12.18;43.88;100583.63;5022787;28;19921;-70
2022/01/07 11:55:35;;;;;;;;;;;;;;;12.36;43.78;100586.31;5019290;28;19921;-69
2022/01/07 11:58:03;;;;;;;;;;;;;;;12.47;43.24;100574.66;5024769;28;19918;-80
2022/01/07 12:00:47;;;;;;;;;;;;;;;12.47;43.57;100571.13;5023084;28;20380;-71
2022/01/07 12:03:13;;;;;;;;;;;;;;;12.16;44.36;100593.28;5024338;28;19928;-70
2022/01/07 12:05:38;;;;;;;;;;;;;;;12.20;44.08;100591.50;5003973;28;19921;-75
2022/01/07 12:08:04;;;;;;;;;;;;;;;12.01;44.65;100591.06;5022118;28;19924;-70
2022/01/07 12:10:29;;;;;;;;;;;;;;;12.35;44.00;100584.69;5022997;28;20379;-69
2022/01/07 12:12:58;;;;;;;;;;;;;;;12.08;44.63;100575.75;5023162;28;20431;-83
2022/01/07 12:15:24;;;;;;;;;;;;;;;12.05;44.55;100579.16;5019446;28;19963;-72
2022/01/07 12:17:49;;;;;;;;;;;;;;;12.13;44.77;100586.53;5024201;28;19920;-74
2022/01/07 12:20:20;;;;;;;;;;;;;;;12.37;44.12;100599.66;5021572;28;19929;-83
2022/01/07 12:22:47;;;;;;;;;;;;;;;12.18;44.62;100613.75;5026644;28;19917;-81
2022/01/07 12:25:12;;;;;;;;;;;;;;;12.27;44.33;100632.09;5020372;28;19968;-83
2022/01/07 12:27:38;;;;;;;;;;;;;;;11.87;45.00;100626.88;5019264;28;19968;-83
2022/01/07 12:30:03;;;;;;;;;;;;;;;12.08;44.76;100627.78;5023330;28;19928;-70
2022/01/07 12:32:33;;;;;;;;;;;;;;;11.85;44.85;100629.13;5029528;28;19925;-70
2022/01/07 12:34:58;;;;;;;;;;;;;;;12.18;44.33;100635.69;5021062;28;19917;-70
2022/01/07 12:37:27;;;;;;;;;;;;;;;11.70;45.10;100629.59;5020012;28;19928;-77
2022/01/07 12:39:54;;;;;;;;;;;;;;;12.12;44.24;100631.50;5027534;28;19917;-70
2022/01/07 12:42:19;;;;;;;;;;;;;;;12.07;44.31;100634.41;5021664;28;19921;-81
2022/01/07 12:44:52;;;;;;;;;;;;;;;12.03;44.66;100633.44;5023764;28;19930;-70